Terminal Aerodrome Forecast
Issued by NWS

Home | Current Version | Previous Version | Text Only | Print | Product List | Glossary On
Versions: 1 2 3 4 5 6 7 8 9 10 11 12 13 14 15 16 17 18
000
FTUS44 KJAN 301643 AAA
TAFGTR
TAF AMD
KGTR 301643Z 3017/3112 28008KT P6SM VCTS SCT025 BKN040CB
     FM301800 29007KT 6SM -TSRA SCT025 BKN040CB
     FM301930 30008KT P6SM VCTS SCT030 BKN050CB
     FM310100 20004KT P6SM SKC=

USA.gov is the U.S. government's official web portal to all federal, state and local government web resources and services.